createdAt,value
2022-08-17T04:00:29.065Z,4.00
2022-08-17T04:01:29.078Z,4.00
2022-08-17T04:02:29.020Z,4.00
2022-08-17T04:03:28.999Z,8.00
2022-08-17T04:04:28.993Z,4.00
2022-08-17T04:05:28.977Z,8.00
2022-08-17T04:06:28.965Z,8.00
2022-08-17T04:07:28.971Z,12.00
2022-08-17T04:08:28.944Z,12.00
2022-08-17T04:09:28.936Z,12.00
2022-08-17T04:10:28.921Z,12.00
2022-08-17T04:11:33.934Z,16.00
2022-08-17T04:12:28.908Z,16.00
2022-08-17T04:13:28.895Z,20.00
2022-08-17T04:14:28.882Z,20.00
2022-08-17T04:15:28.869Z,24.00
2022-08-17T04:16:28.855Z,28.00
2022-08-17T04:17:28.860Z,32.00
2022-08-17T04:18:28.833Z,36.00
2022-08-17T04:19:28.823Z,36.00
2022-08-17T04:20:28.812Z,36.00
2022-08-17T04:21:28.800Z,36.00
2022-08-17T04:22:34.448Z,40.00
2022-08-17T04:23:28.787Z,44.00
2022-08-17T04:24:28.766Z,48.00
2022-08-17T04:25:28.755Z,48.00
2022-08-17T04:26:52.981Z,52.00
2022-08-17T04:27:29.743Z,56.00
2022-08-17T04:28:28.721Z,60.00
2022-08-17T04:29:28.714Z,64.00
2022-08-17T04:30:29.705Z,68.00
2022-08-17T04:31:28.690Z,76.00
2022-08-17T04:33:03.665Z,80.00
2022-08-17T04:33:34.694Z,88.00
2022-08-17T04:34:28.660Z,92.00
2022-08-17T04:35:28.646Z,104.00
2022-08-17T04:36:28.639Z,112.00
2022-08-17T04:37:28.638Z,116.00
2022-08-17T04:38:28.611Z,120.00
2022-08-17T04:39:28.635Z,132.00
2022-08-17T04:40:28.589Z,140.00
2022-08-17T04:41:28.581Z,160.00
2022-08-17T04:42:28.567Z,180.00
2022-08-17T04:43:28.568Z,196.00
2022-08-17T04:44:37.648Z,208.00
2022-08-17T04:45:32.321Z,212.00
2022-08-17T04:46:28.522Z,224.00
2022-08-17T04:47:28.515Z,228.00
2022-08-17T04:48:35.695Z,228.00
2022-08-17T04:49:29.531Z,228.00
2022-08-17T04:50:28.479Z,224.00
2022-08-17T04:51:28.469Z,224.00
2022-08-17T04:52:29.875Z,224.00
2022-08-17T04:53:29.463Z,224.00
2022-08-17T04:54:28.438Z,228.00
2022-08-17T04:55:33.447Z,236.00
2022-08-17T04:56:28.418Z,240.00
2022-08-17T04:57:28.403Z,252.00
2022-08-17T04:58:28.403Z,264.00
2022-08-17T04:59:28.378Z,292.00
2022-08-17T05:00:28.369Z,324.00
2022-08-17T05:01:28.475Z,348.00
2022-08-17T05:02:28.362Z,372.00
2022-08-17T05:03:28.335Z,396.00
2022-08-17T05:04:34.396Z,428.00
2022-08-17T05:05:29.316Z,444.00
2022-08-17T05:06:33.324Z,448.00
2022-08-17T05:07:31.413Z,440.00
2022-08-17T05:08:28.280Z,432.00
2022-08-17T05:09:28.268Z,428.00
2022-08-17T05:10:28.259Z,420.00
2022-08-17T05:11:28.249Z,408.00
2022-08-17T05:12:28.247Z,396.00
2022-08-17T05:13:28.224Z,380.00
2022-08-17T05:14:32.835Z,372.00
2022-08-17T05:15:29.202Z,368.00
2022-08-17T05:16:28.191Z,360.00
2022-08-17T05:17:33.225Z,360.00
2022-08-17T05:18:28.170Z,368.00
2022-08-17T05:19:28.157Z,364.00
2022-08-17T05:20:28.153Z,368.00
2022-08-17T05:21:28.136Z,360.00
2022-08-17T05:22:28.126Z,344.00
2022-08-17T05:23:35.553Z,340.00
2022-08-17T05:24:38.330Z,348.00
2022-08-17T05:25:29.094Z,364.00
2022-08-17T05:26:28.791Z,388.00
2022-08-17T05:27:32.232Z,404.00
2022-08-17T05:28:34.095Z,432.00
2022-08-17T05:29:35.213Z,480.00
2022-08-17T05:30:29.037Z,520.00
2022-08-17T05:31:28.023Z,540.00
2022-08-17T05:32:37.951Z,564.00
2022-08-17T05:33:29.013Z,596.00
2022-08-17T05:34:27.993Z,612.00
2022-08-17T05:35:27.981Z,632.00
2022-08-17T05:36:41.984Z,672.00
2022-08-17T05:37:28.966Z,708.00
2022-08-17T05:38:27.958Z,768.00
2022-08-17T05:39:32.991Z,868.00
2022-08-17T05:40:27.926Z,980.00
2022-08-17T05:41:28.914Z,1124.00
2022-08-17T05:42:27.904Z,1240.00
2022-08-17T05:43:27.902Z,1276.00
2022-08-17T05:44:27.896Z,1244.00
2022-08-17T05:45:54.257Z,1220.00
2022-08-17T05:46:28.860Z,1132.00
2022-08-17T05:47:27.848Z,1060.00
2022-08-17T05:48:35.677Z,1052.00
2022-08-17T05:49:28.825Z,1176.00
2022-08-17T05:50:32.837Z,1032.00
2022-08-17T05:51:27.814Z,796.00
2022-08-17T05:52:27.793Z,748.00
2022-08-17T05:53:27.795Z,820.00
2022-08-17T05:54:27.819Z,764.00
2022-08-17T05:55:27.769Z,752.00
2022-08-17T05:56:30.419Z,760.00
2022-08-17T05:57:27.766Z,752.00
2022-08-17T05:58:27.735Z,744.00
2022-08-17T05:59:27.723Z,760.00
2022-08-17T06:00:30.694Z,784.00
2022-08-17T06:01:32.772Z,744.00
2022-08-17T06:02:27.694Z,700.00
2022-08-17T06:03:27.829Z,648.00
2022-08-17T06:04:27.666Z,596.00
2022-08-17T06:05:27.661Z,564.00
2022-08-17T06:06:31.196Z,560.00
2022-08-17T06:07:27.628Z,588.00
2022-08-17T06:08:27.690Z,668.00
2022-08-17T06:09:33.008Z,772.00
2022-08-17T06:10:28.670Z,908.00
2022-08-17T06:11:27.590Z,1052.00
2022-08-17T06:12:32.600Z,1172.00
2022-08-17T06:13:27.571Z,1296.00
2022-08-17T06:14:27.552Z,1352.00
2022-08-17T06:15:27.538Z,1412.00
2022-08-17T06:16:34.091Z,1548.00
2022-08-17T06:17:28.514Z,1600.00
2022-08-17T06:18:27.527Z,1704.00
2022-08-17T06:19:27.500Z,1700.00
2022-08-17T06:20:27.575Z,1648.00
2022-08-17T06:21:31.952Z,1664.00
2022-08-17T06:22:27.480Z,1912.00
2022-08-17T06:23:32.555Z,2364.00
2022-08-17T06:24:27.477Z,2680.00
2022-08-17T06:25:27.426Z,2852.00
2022-08-17T06:26:27.584Z,1408.00
2022-08-17T06:27:28.403Z,1996.00
2022-08-17T06:28:27.422Z,1132.00
2022-08-17T06:29:27.390Z,980.00
2022-08-17T06:30:27.498Z,820.00
2022-08-17T06:31:27.375Z,760.00
2022-08-17T06:32:27.350Z,748.00
2022-08-17T06:33:27.340Z,832.00
2022-08-17T06:34:32.360Z,760.00
2022-08-17T06:35:32.090Z,744.00
2022-08-17T06:36:28.313Z,720.00
2022-08-17T06:37:27.295Z,692.00
2022-08-17T06:38:36.965Z,660.00
2022-08-17T06:39:31.268Z,628.00
2022-08-17T06:40:27.328Z,608.00
2022-08-17T06:41:27.248Z,592.00
2022-08-17T06:43:02.927Z,604.00
2022-08-17T06:43:28.226Z,600.00
2022-08-17T06:44:49.804Z,604.00
2022-08-17T06:45:33.457Z,600.00
2022-08-17T06:46:27.212Z,620.00
2022-08-17T06:47:28.495Z,660.00
2022-08-17T06:48:27.176Z,696.00
2022-08-17T06:49:27.170Z,752.00
2022-08-17T06:50:27.287Z,800.00
2022-08-17T06:51:27.147Z,864.00
2022-08-17T06:52:46.007Z,912.00
2022-08-17T06:53:28.117Z,944.00
2022-08-17T06:54:27.116Z,952.00
2022-08-17T06:55:27.100Z,940.00
2022-08-17T06:56:53.263Z,916.00
2022-08-17T06:57:28.071Z,904.00
2022-08-17T06:58:29.822Z,932.00
2022-08-17T06:59:54.343Z,964.00
2022-08-17T07:00:28.128Z,1024.00
2022-08-17T07:01:27.181Z,1092.00
2022-08-17T07:02:29.506Z,1124.00
2022-08-17T07:03:28.769Z,1148.00
2022-08-17T07:04:27.430Z,1140.00
2022-08-17T07:05:27.236Z,1096.00
2022-08-17T07:06:27.248Z,1040.00
2022-08-17T07:07:32.120Z,976.00
2022-08-17T07:08:30.576Z,880.00
2022-08-17T07:09:27.946Z,800.00
2022-08-17T07:10:26.935Z,716.00
2022-08-17T07:11:26.916Z,660.00
2022-08-17T07:12:26.907Z,636.00
2022-08-17T07:13:26.896Z,608.00
2022-08-17T07:14:26.894Z,604.00
2022-08-17T07:15:26.871Z,592.00
2022-08-17T07:16:26.863Z,584.00
2022-08-17T07:17:46.508Z,580.00
2022-08-17T07:18:32.861Z,576.00
2022-08-17T07:19:26.841Z,600.00
2022-08-17T07:20:26.817Z,624.00
2022-08-17T07:21:26.937Z,656.00
2022-08-17T07:22:26.794Z,712.00
2022-08-17T07:23:26.784Z,772.00
2022-08-17T07:24:30.109Z,852.00
2022-08-17T07:25:26.777Z,920.00
2022-08-17T07:26:26.749Z,1024.00
2022-08-17T07:27:26.737Z,1152.00
2022-08-17T07:28:26.731Z,1376.00
2022-08-17T07:29:31.747Z,1560.00
2022-08-17T07:30:26.711Z,1704.00
2022-08-17T07:31:26.709Z,1752.00
2022-08-17T07:32:26.682Z,1660.00
2022-08-17T07:33:26.671Z,1560.00
2022-08-17T07:34:26.693Z,1516.00
2022-08-17T07:35:26.648Z,1456.00
2022-08-17T07:36:30.126Z,1440.00
2022-08-17T07:37:26.627Z,1408.00
2022-08-17T07:38:27.142Z,1360.00
2022-08-17T07:39:26.631Z,1320.00
2022-08-17T07:40:31.689Z,1272.00
2022-08-17T07:41:26.593Z,1212.00
2022-08-17T07:42:27.572Z,1128.00
2022-08-17T07:43:26.565Z,1048.00
2022-08-17T07:44:26.561Z,1004.00
2022-08-17T07:45:26.564Z,972.00
2022-08-17T07:46:26.526Z,968.00
2022-08-17T07:47:26.523Z,1040.00
2022-08-17T07:48:26.506Z,1180.00
2022-08-17T07:49:26.506Z,1364.00
2022-08-17T07:50:27.621Z,1528.00
2022-08-17T07:51:31.505Z,1628.00
2022-08-17T07:52:50.986Z,1628.00
2022-08-17T07:53:27.452Z,1680.00
2022-08-17T07:54:26.447Z,1720.00
2022-08-17T07:55:26.427Z,1860.00
2022-08-17T07:56:26.416Z,1968.00
2022-08-17T07:57:29.993Z,2100.00
2022-08-17T07:58:26.402Z,2180.00
2022-08-17T07:59:33.220Z,2272.00
2022-08-17T08:00:31.737Z,2444.00
2022-08-17T08:01:27.375Z,2596.00
2022-08-17T08:02:33.885Z,2660.00
2022-08-17T08:03:26.402Z,2600.00
2022-08-17T08:04:49.905Z,2392.00
2022-08-17T08:05:49.765Z,2144.00
2022-08-17T08:06:27.303Z,1952.00
2022-08-17T08:07:26.294Z,1824.00
2022-08-17T08:08:26.283Z,1624.00
2022-08-17T08:09:26.281Z,1396.00
2022-08-17T08:10:26.260Z,1136.00
2022-08-17T08:11:26.251Z,916.00
2022-08-17T08:12:32.689Z,832.00
2022-08-17T08:13:32.366Z,772.00
2022-08-17T08:14:28.258Z,772.00
2022-08-17T08:15:26.216Z,800.00
2022-08-17T08:16:26.194Z,880.00
2022-08-17T08:17:26.183Z,900.00
2022-08-17T08:18:53.706Z,904.00
2022-08-17T08:19:27.160Z,944.00
2022-08-17T08:20:51.106Z,996.00
2022-08-17T08:21:27.136Z,1124.00
2022-08-17T08:22:26.129Z,1212.00
2022-08-17T08:23:26.116Z,1280.00
2022-08-17T08:24:31.237Z,1340.00
2022-08-17T08:25:26.102Z,1376.00
2022-08-17T08:26:26.084Z,1332.00
2022-08-17T08:27:26.069Z,1284.00
2022-08-17T08:28:26.071Z,1308.00
2022-08-17T08:29:26.048Z,1304.00
2022-08-17T08:30:26.052Z,1220.00
2022-08-17T08:31:26.029Z,1180.00
2022-08-17T08:32:26.016Z,1168.00
2022-08-17T08:33:26.003Z,1220.00
2022-08-17T08:34:53.467Z,1308.00
2022-08-17T08:35:32.035Z,1360.00
2022-08-17T08:37:14.187Z,1464.00
2022-08-17T08:37:34.498Z,1668.00
2022-08-17T08:38:26.947Z,1708.00
2022-08-17T08:39:26.031Z,1768.00
2022-08-17T08:40:25.938Z,1752.00
2022-08-17T08:41:25.913Z,1772.00
2022-08-17T08:42:25.911Z,1788.00
2022-08-17T08:43:25.896Z,1708.00
2022-08-17T08:45:00.244Z,1636.00
2022-08-17T08:45:26.881Z,1524.00
2022-08-17T08:46:30.884Z,1324.00
2022-08-17T08:47:25.867Z,1220.00
2022-08-17T08:48:53.391Z,1156.00
2022-08-17T08:49:59.193Z,1112.00
2022-08-17T08:50:36.877Z,1104.00
2022-08-17T08:51:26.813Z,1128.00
2022-08-17T08:52:25.796Z,1180.00
2022-08-17T08:53:25.783Z,1244.00
2022-08-17T08:54:26.555Z,1344.00
2022-08-17T08:55:25.779Z,1504.00
2022-08-17T08:56:25.758Z,1584.00
2022-08-17T08:57:33.958Z,1712.00
2022-08-17T08:58:31.467Z,1796.00
2022-08-17T08:59:26.724Z,1832.00
2022-08-17T09:00:25.730Z,1780.00
2022-08-17T09:01:25.740Z,1736.00
2022-08-17T09:02:25.683Z,1672.00
2022-08-17T09:03:43.838Z,1672.00
2022-08-17T09:04:26.661Z,1768.00
2022-08-17T09:05:25.665Z,1888.00
2022-08-17T09:06:37.793Z,2024.00
2022-08-17T09:07:26.628Z,2036.00
2022-08-17T09:08:30.639Z,2072.00
2022-08-17T09:09:25.610Z,2132.00
2022-08-17T09:10:25.594Z,2160.00
2022-08-17T09:11:25.592Z,2140.00
2022-08-17T09:12:25.572Z,2112.00
2022-08-17T09:13:25.564Z,2092.00
2022-08-17T09:14:28.742Z,2112.00
2022-08-17T09:15:25.542Z,2108.00
2022-08-17T09:16:25.537Z,2156.00
2022-08-17T09:17:25.516Z,2276.00
2022-08-17T09:19:02.256Z,2416.00
2022-08-17T09:19:31.516Z,2544.00
2022-08-17T09:20:28.067Z,2636.00
2022-08-17T09:21:25.484Z,2716.00
2022-08-17T09:22:25.464Z,2824.00
2022-08-17T09:23:25.457Z,3004.00
2022-08-17T09:24:25.439Z,3332.00
2022-08-17T09:25:25.432Z,3724.00
2022-08-17T09:26:25.440Z,4216.00
2022-08-17T09:27:25.408Z,4748.00
2022-08-17T09:28:25.395Z,4920.00
2022-08-17T09:29:25.400Z,4680.00
2022-08-17T09:30:30.400Z,4416.00
2022-08-17T09:31:27.703Z,4172.00
2022-08-17T09:32:25.351Z,4020.00
2022-08-17T09:33:25.342Z,3736.00
2022-08-17T09:34:32.075Z,3092.00
2022-08-17T09:35:32.937Z,2520.00
2022-08-17T09:36:26.321Z,2164.00
2022-08-17T09:37:25.323Z,2084.00
2022-08-17T09:38:28.109Z,2108.00
2022-08-17T09:39:26.353Z,2136.00
2022-08-17T09:40:25.269Z,2268.00
2022-08-17T09:41:30.370Z,2440.00
2022-08-17T09:42:25.244Z,2516.00
2022-08-17T09:43:25.241Z,2468.00
2022-08-17T09:44:25.224Z,2468.00
2022-08-17T09:45:25.213Z,2436.00
2022-08-17T09:46:25.211Z,2612.00
2022-08-17T09:47:25.188Z,2848.00
2022-08-17T09:48:25.177Z,3044.00
2022-08-17T09:49:25.465Z,3092.00
2022-08-17T09:51:03.184Z,3184.00
2022-08-17T09:51:26.158Z,3332.00
2022-08-17T09:52:30.155Z,3632.00
2022-08-17T09:53:25.125Z,3684.00
2022-08-17T09:54:38.635Z,3388.00
2022-08-17T09:55:26.101Z,3136.00
2022-08-17T09:56:25.097Z,2688.00
2022-08-17T09:57:32.671Z,2412.00
2022-08-17T09:58:29.068Z,2356.00
2022-08-17T09:59:25.057Z,2348.00
2022-08-17T10:00:25.062Z,2324.00
2022-08-17T10:01:25.148Z,2168.00
2022-08-17T10:02:25.023Z,2084.00
2022-08-17T10:03:30.034Z,1988.00
2022-08-17T10:04:29.465Z,1928.00
2022-08-17T10:05:24.995Z,1688.00
2022-08-17T10:06:24.986Z,1412.00
2022-08-17T10:07:25.028Z,1244.00
2022-08-17T10:08:24.955Z,1156.00
2022-08-17T10:09:24.945Z,1160.00
2022-08-17T10:10:24.935Z,1228.00
2022-08-17T10:11:33.815Z,1316.00
2022-08-17T10:12:30.191Z,1336.00
2022-08-17T10:13:24.900Z,1368.00
2022-08-17T10:14:36.455Z,1400.00
2022-08-17T10:15:25.878Z,1396.00
2022-08-17T10:16:24.875Z,1476.00
2022-08-17T10:17:24.857Z,1532.00
2022-08-17T10:18:24.900Z,1644.00
2022-08-17T10:19:25.830Z,1748.00
2022-08-17T10:20:24.818Z,1836.00
2022-08-17T10:21:24.828Z,1764.00
2022-08-17T10:22:34.850Z,1712.00
2022-08-17T10:23:25.786Z,1608.00
2022-08-17T10:24:24.774Z,1552.00
2022-08-17T10:25:48.595Z,1500.00
2022-08-17T10:26:25.760Z,1412.00
2022-08-17T10:27:24.787Z,1316.00
2022-08-17T10:28:29.568Z,1272.00
2022-08-17T10:29:25.725Z,1264.00
2022-08-17T10:30:24.710Z,1232.00
2022-08-17T10:31:40.057Z,1192.00
2022-08-17T10:32:25.682Z,1180.00
2022-08-17T10:33:24.672Z,1168.00
2022-08-17T10:34:24.679Z,1200.00
2022-08-17T10:35:24.686Z,1300.00
2022-08-17T10:36:29.673Z,1344.00
2022-08-17T10:37:24.677Z,1444.00
2022-08-17T10:38:24.856Z,1528.00
2022-08-17T10:39:24.606Z,1624.00
2022-08-17T10:40:24.713Z,1708.00
2022-08-17T10:41:24.603Z,1748.00
2022-08-17T10:42:30.834Z,1724.00
2022-08-17T10:43:25.559Z,1644.00
2022-08-17T10:44:40.233Z,1576.00
2022-08-17T10:45:25.559Z,1560.00
2022-08-17T10:46:30.324Z,1592.00
2022-08-17T10:47:42.295Z,1644.00
2022-08-17T10:48:25.507Z,1668.00
2022-08-17T10:49:24.503Z,1700.00
2022-08-17T10:50:24.482Z,1788.00
2022-08-17T10:51:24.489Z,1908.00
2022-08-17T10:52:25.045Z,1996.00
2022-08-17T10:53:24.448Z,2084.00
2022-08-17T10:54:24.449Z,2184.00
2022-08-17T10:55:24.427Z,2252.00
2022-08-17T10:56:24.416Z,2312.00
2022-08-17T10:57:24.415Z,2328.00
2022-08-17T10:58:29.419Z,2292.00
2022-08-17T10:59:24.387Z,2284.00
2022-08-17T11:00:27.621Z,2368.00
2022-08-17T11:01:24.403Z,2492.00
2022-08-17T11:02:24.360Z,2696.00
2022-08-17T11:03:24.341Z,2948.00
2022-08-17T11:04:25.071Z,3064.00
2022-08-17T11:05:24.319Z,3364.00
2022-08-17T11:06:24.303Z,3544.00
2022-08-17T11:07:24.303Z,3828.00
2022-08-17T11:08:24.307Z,4076.00
2022-08-17T11:09:29.295Z,4300.00
2022-08-17T11:10:24.271Z,4424.00
2022-08-17T11:11:24.250Z,4724.00
2022-08-17T11:12:24.253Z,5004.00
2022-08-17T11:13:24.229Z,5480.00
2022-08-17T11:14:24.212Z,5236.00
2022-08-17T11:15:24.204Z,5540.00
2022-08-17T11:16:24.194Z,5936.00
2022-08-17T11:17:24.195Z,6964.00
2022-08-17T11:18:24.212Z,8184.00
2022-08-17T11:19:24.159Z,7444.00
2022-08-17T11:20:29.194Z,6860.00
2022-08-17T11:21:24.136Z,8048.00
2022-08-17T11:22:24.139Z,9504.00
2022-08-17T11:23:24.128Z,9320.00
2022-08-17T11:24:24.117Z,9232.00
2022-08-17T11:25:24.094Z,8436.00
2022-08-17T11:26:24.079Z,8404.00
2022-08-17T11:27:24.092Z,7560.00
2022-08-17T11:28:24.058Z,7184.00
2022-08-17T11:29:24.663Z,7120.00
2022-08-17T11:30:24.037Z,7456.00
2022-08-17T11:31:38.747Z,8168.00
2022-08-17T11:32:25.022Z,8328.00
2022-08-17T11:33:24.037Z,8916.00
2022-08-17T11:34:23.991Z,8056.00
2022-08-17T11:35:23.982Z,7756.00
2022-08-17T11:36:23.973Z,7836.00
2022-08-17T11:37:23.972Z,7968.00
2022-08-17T11:38:23.951Z,9100.00
2022-08-17T11:39:23.938Z,9624.00
2022-08-17T11:40:23.925Z,9564.00
2022-08-17T11:41:23.917Z,13588.00
2022-08-17T11:42:28.934Z,9392.00
2022-08-17T11:43:25.673Z,8548.00
2022-08-17T11:44:23.880Z,9408.00
2022-08-17T11:45:32.263Z,10540.00
2022-08-17T11:46:24.861Z,10220.00
2022-08-17T11:47:23.860Z,10380.00
2022-08-17T11:48:28.334Z,8876.00
2022-08-17T11:49:24.827Z,10812.00
2022-08-17T11:50:27.679Z,7980.00
2022-08-17T11:51:23.807Z,8088.00
2022-08-17T11:52:23.809Z,7812.00
2022-08-17T11:53:28.812Z,7080.00
2022-08-17T11:54:33.329Z,6236.00
2022-08-17T11:55:35.466Z,6260.00
2022-08-17T11:56:24.768Z,6248.00
2022-08-17T11:57:23.760Z,6800.00
2022-08-17T11:58:23.731Z,6424.00
2022-08-17T11:59:23.757Z,6156.00
2022-08-17T12:00:23.711Z,7436.00
2022-08-17T12:01:23.697Z,7192.00
2022-08-17T12:02:23.686Z,8252.00
2022-08-17T12:03:23.776Z,9404.00
2022-08-17T12:04:28.799Z,8480.00
2022-08-17T12:05:23.657Z,9588.00
2022-08-17T12:06:23.647Z,13120.00
2022-08-17T12:07:24.644Z,12924.00
2022-08-17T12:08:23.622Z,8692.00
2022-08-17T12:09:23.612Z,7424.00
2022-08-17T12:10:23.600Z,6120.00
2022-08-17T12:11:56.359Z,5304.00
2022-08-17T12:12:24.587Z,5176.00
2022-08-17T12:13:23.569Z,4976.00
2022-08-17T12:14:45.075Z,4760.00
2022-08-17T12:15:29.571Z,4040.00
2022-08-17T12:16:23.535Z,4032.00
2022-08-17T12:17:41.613Z,3968.00
2022-08-17T12:18:24.518Z,4256.00
2022-08-17T12:19:23.506Z,4224.00
2022-08-17T12:20:23.497Z,4344.00
2022-08-17T12:21:23.486Z,4628.00
2022-08-17T12:22:23.480Z,4696.00
2022-08-17T12:23:23.467Z,4548.00
2022-08-17T12:24:23.449Z,4084.00
2022-08-17T12:25:23.443Z,3796.00
2022-08-17T12:26:28.451Z,3480.00
2022-08-17T12:28:04.109Z,3252.00
2022-08-17T12:28:24.406Z,3156.00
2022-08-17T12:29:38.398Z,3088.00
2022-08-17T12:30:24.384Z,2864.00
2022-08-17T12:31:23.376Z,2808.00
2022-08-17T12:32:23.363Z,2728.00
2022-08-17T12:33:28.055Z,2708.00
2022-08-17T12:34:24.339Z,2488.00
2022-08-17T12:35:23.336Z,2340.00
2022-08-17T12:36:23.318Z,2360.00
2022-08-17T12:37:28.331Z,2468.00
2022-08-17T12:38:32.447Z,2548.00
2022-08-17T12:39:24.946Z,2520.00
2022-08-17T12:40:23.277Z,2476.00
2022-08-17T12:41:23.267Z,2464.00
2022-08-17T12:42:23.253Z,2348.00
2022-08-17T12:43:23.253Z,2204.00
2022-08-17T12:44:23.236Z,2016.00
2022-08-17T12:45:23.223Z,1904.00
2022-08-17T12:46:23.209Z,1848.00
2022-08-17T12:47:23.391Z,1864.00
2022-08-17T12:48:28.225Z,1876.00
2022-08-17T12:49:23.182Z,2056.00
2022-08-17T12:50:29.679Z,2124.00
2022-08-17T12:51:24.160Z,2124.00
2022-08-17T12:52:23.142Z,2072.00
2022-08-17T12:53:23.142Z,2020.00
2022-08-17T12:54:23.138Z,2092.00
2022-08-17T12:55:23.111Z,2148.00
2022-08-17T12:56:23.104Z,2288.00
2022-08-17T12:57:23.113Z,2472.00
2022-08-17T12:58:23.095Z,2816.00
2022-08-17T12:59:29.929Z,3176.00
2022-08-17T13:00:23.062Z,3476.00
2022-08-17T13:01:23.103Z,3728.00
2022-08-17T13:02:23.050Z,4016.00
2022-08-17T13:03:23.047Z,4196.00
2022-08-17T13:04:23.011Z,4324.00
2022-08-17T13:05:23.001Z,4368.00
2022-08-17T13:06:22.993Z,4416.00
2022-08-17T13:07:22.985Z,4348.00
2022-08-17T13:08:22.994Z,4436.00
2022-08-17T13:09:23.010Z,4748.00
2022-08-17T13:10:32.875Z,5276.00
2022-08-17T13:11:22.938Z,5944.00
2022-08-17T13:12:22.924Z,6564.00
2022-08-17T13:13:22.935Z,6536.00
2022-08-17T13:14:22.906Z,6548.00
2022-08-17T13:15:22.896Z,6504.00
2022-08-17T13:16:22.881Z,6492.00
2022-08-17T13:17:22.869Z,5944.00
2022-08-17T13:18:22.865Z,5776.00
2022-08-17T13:19:39.979Z,5452.00
2022-08-17T13:20:23.834Z,5004.00
2022-08-17T13:21:27.851Z,4816.00
2022-08-17T13:22:22.818Z,5004.00
2022-08-17T13:23:22.813Z,5152.00
2022-08-17T13:24:22.803Z,5316.00
2022-08-17T13:25:22.787Z,5248.00
2022-08-17T13:26:22.771Z,5120.00
2022-08-17T13:27:22.760Z,4984.00
2022-08-17T13:28:35.631Z,4832.00
2022-08-17T13:29:23.750Z,4336.00
2022-08-17T13:30:22.748Z,4096.00
2022-08-17T13:31:22.738Z,3764.00
2022-08-17T13:32:27.728Z,3380.00
2022-08-17T13:33:22.693Z,3180.00
2022-08-17T13:34:23.890Z,3320.00
2022-08-17T13:35:29.685Z,3300.00
2022-08-17T13:36:26.388Z,3264.00
2022-08-17T13:37:23.220Z,3232.00
2022-08-17T13:38:22.640Z,3120.00
2022-08-17T13:39:22.641Z,2960.00
2022-08-17T13:40:22.623Z,2888.00
2022-08-17T13:41:22.629Z,2768.00
2022-08-17T13:42:22.631Z,2764.00
2022-08-17T13:43:27.608Z,2784.00
2022-08-17T13:44:22.596Z,2732.00
2022-08-17T13:45:35.506Z,2576.00
2022-08-17T13:46:23.555Z,2400.00
2022-08-17T13:47:22.544Z,2468.00
2022-08-17T13:48:22.533Z,2428.00
2022-08-17T13:49:22.532Z,2512.00
2022-08-17T13:50:22.513Z,2468.00
2022-08-17T13:51:22.507Z,2516.00
2022-08-17T13:52:25.635Z,2628.00
2022-08-17T13:53:22.477Z,2800.00
2022-08-17T13:54:27.508Z,2840.00
2022-08-17T13:55:22.461Z,2932.00
2022-08-17T13:56:38.830Z,2880.00
2022-08-17T13:57:23.435Z,2984.00
2022-08-17T13:58:22.424Z,3084.00
2022-08-17T13:59:36.289Z,3056.00
2022-08-17T14:00:23.413Z,2892.00
2022-08-17T14:01:22.430Z,2804.00
2022-08-17T14:02:22.382Z,2732.00
2022-08-17T14:03:22.400Z,2772.00
2022-08-17T14:04:22.364Z,2808.00
2022-08-17T14:05:27.421Z,2744.00
2022-08-17T14:06:52.448Z,2808.00
2022-08-17T14:07:23.326Z,2720.00
2022-08-17T14:08:22.323Z,2672.00
2022-08-17T14:09:22.317Z,2724.00
2022-08-17T14:10:22.309Z,2652.00
2022-08-17T14:11:22.292Z,2600.00
2022-08-17T14:12:22.275Z,2692.00
2022-08-17T14:13:22.265Z,2572.00
2022-08-17T14:14:22.253Z,2544.00
2022-08-17T14:15:22.251Z,2436.00
2022-08-17T14:16:27.255Z,2620.00
2022-08-17T14:17:22.219Z,2784.00
2022-08-17T14:18:31.204Z,3148.00
2022-08-17T14:19:23.198Z,3316.00
2022-08-17T14:20:22.201Z,3520.00
2022-08-17T14:21:22.178Z,3300.00
2022-08-17T14:22:22.167Z,3016.00
2022-08-17T14:23:22.155Z,2744.00
2022-08-17T14:24:22.146Z,2632.00
2022-08-17T14:25:22.403Z,2508.00
2022-08-17T14:26:22.124Z,2344.00
2022-08-17T14:27:27.136Z,2260.00
2022-08-17T14:28:22.102Z,2120.00
2022-08-17T14:29:22.092Z,2072.00
2022-08-17T14:30:22.092Z,2112.00
2022-08-17T14:31:22.082Z,2288.00
2022-08-17T14:32:22.070Z,2504.00
2022-08-17T14:33:22.049Z,2708.00
2022-08-17T14:34:22.040Z,2800.00
2022-08-17T14:35:22.035Z,2644.00
2022-08-17T14:36:22.021Z,2428.00
2022-08-17T14:37:22.006Z,2048.00
2022-08-17T14:38:27.017Z,1984.00
2022-08-17T14:39:21.990Z,1840.00
2022-08-17T14:40:22.028Z,1572.00
2022-08-17T14:41:22.454Z,1692.00
2022-08-17T14:42:21.951Z,1756.00
2022-08-17T14:43:21.936Z,1848.00
2022-08-17T14:44:21.939Z,1796.00
2022-08-17T14:45:29.830Z,1736.00
2022-08-17T14:46:22.904Z,1644.00
2022-08-17T14:47:21.892Z,1632.00
2022-08-17T14:48:21.888Z,1480.00
2022-08-17T14:49:26.906Z,1680.00
2022-08-17T14:50:21.863Z,1836.00
2022-08-17T14:51:21.849Z,1820.00
2022-08-17T14:52:22.030Z,1844.00
2022-08-17T14:53:21.828Z,1808.00
2022-08-17T14:54:33.041Z,1720.00
2022-08-17T14:55:22.817Z,1596.00
2022-08-17T14:56:21.797Z,1672.00
2022-08-17T14:57:33.013Z,1740.00
2022-08-17T14:58:22.771Z,1760.00
2022-08-17T14:59:21.761Z,1744.00
2022-08-17T15:00:26.786Z,1736.00
2022-08-17T15:01:21.801Z,1736.00
2022-08-17T15:02:21.733Z,1716.00
2022-08-17T15:03:22.732Z,1696.00
2022-08-17T15:04:21.705Z,1720.00
2022-08-17T15:05:21.703Z,1868.00
2022-08-17T15:06:21.685Z,2000.00
2022-08-17T15:07:21.671Z,2000.00
2022-08-17T15:08:22.694Z,1952.00
2022-08-17T15:09:21.661Z,1916.00
2022-08-17T15:10:21.655Z,1916.00
2022-08-17T15:11:26.648Z,1944.00
2022-08-17T15:12:21.618Z,1960.00
2022-08-17T15:13:21.609Z,1920.00
2022-08-17T15:14:21.596Z,1892.00
2022-08-17T15:15:21.603Z,1840.00
2022-08-17T15:16:21.609Z,1860.00
2022-08-17T15:17:21.560Z,1932.00
2022-08-17T15:18:21.554Z,1888.00
2022-08-17T15:19:21.538Z,1924.00
2022-08-17T15:20:21.538Z,1948.00
2022-08-17T15:21:21.518Z,1880.00
2022-08-17T15:22:26.534Z,1792.00
2022-08-17T15:23:21.496Z,1796.00
2022-08-17T15:24:21.485Z,1732.00
2022-08-17T15:25:21.487Z,1668.00
2022-08-17T15:26:26.009Z,1672.00
2022-08-17T15:27:25.787Z,1708.00
2022-08-17T15:28:22.442Z,1712.00
2022-08-17T15:29:21.434Z,1672.00
2022-08-17T15:30:21.434Z,1680.00
2022-08-17T15:31:31.969Z,1708.00
2022-08-17T15:32:22.397Z,1716.00
2022-08-17T15:33:26.407Z,1784.00
2022-08-17T15:34:21.376Z,1824.00
2022-08-17T15:35:25.164Z,1836.00
2022-08-17T15:36:22.376Z,1912.00
2022-08-17T15:37:21.410Z,1932.00
2022-08-17T15:38:21.333Z,1940.00
2022-08-17T15:39:21.320Z,1952.00
2022-08-17T15:40:21.323Z,1952.00
2022-08-17T15:41:21.299Z,1964.00
2022-08-17T15:42:21.289Z,1956.00
2022-08-17T15:43:26.672Z,1916.00
2022-08-17T15:44:32.405Z,1884.00
2022-08-17T15:45:22.378Z,1892.00
2022-08-17T15:46:21.244Z,1908.00
2022-08-17T15:47:21.232Z,1884.00
2022-08-17T15:48:21.234Z,1944.00
2022-08-17T15:49:21.211Z,1960.00
2022-08-17T15:50:21.213Z,1972.00
2022-08-17T15:51:21.188Z,2016.00
2022-08-17T15:52:21.183Z,2060.00
2022-08-17T15:53:21.168Z,2092.00
2022-08-17T15:54:22.779Z,2104.00
2022-08-17T15:55:26.180Z,2052.00
2022-08-17T15:56:21.134Z,2012.00
2022-08-17T15:57:21.122Z,1908.00
2022-08-17T15:58:21.114Z,1852.00
2022-08-17T15:59:22.098Z,1900.00
2022-08-17T16:00:21.110Z,1868.00
2022-08-17T16:01:45.449Z,1812.00
2022-08-17T16:03:13.486Z,1756.00
2022-08-17T16:04:01.452Z,1692.00
2022-08-17T16:04:30.383Z,1620.00
2022-08-17T16:05:24.240Z,1644.00
2022-08-17T16:06:26.048Z,1604.00
2022-08-17T16:07:26.411Z,1628.00
2022-08-17T16:08:22.003Z,1656.00
2022-08-17T16:09:21.051Z,1684.00
2022-08-17T16:10:21.114Z,1696.00
2022-08-17T16:11:20.974Z,1676.00
2022-08-17T16:12:20.977Z,1668.00